Time;durP1;ratioP1;P1;durP2;ratioP2;P2;SDS_P1;SDS_P2;PMS_P1;PMS_P2;Temp;Humidity;BMP_temperature;BMP_pressure;BME280_temperature;BME280_humidity;BME280_pressure;Samples;Min_cycle;Max_cycle;Signal;HPM_P1;HPM_P2
2023/11/15 00:00:08;;;;;;;6.50;2.80;;;;;;;8.90;83.64;97494.85;221756;1303;25396;-82
2023/11/15 00:05:11;;;;;;;5.30;2.50;;;;;;;8.87;83.59;97490.38;221588;1303;22575;-84
2023/11/15 00:10:14;;;;;;;7.00;2.80;;;;;;;8.82;83.99;97485.80;221668;1298;22572;-85
2023/11/15 00:15:17;;;;;;;6.50;2.70;;;;;;;8.79;84.05;97479.80;221792;1298;22993;-84
2023/11/15 00:20:20;;;;;;;4.80;2.40;;;;;;;8.76;84.43;97477.55;221619;1301;24267;-84
2023/11/15 00:25:23;;;;;;;5.80;2.60;;;;;;;8.72;84.31;97471.34;221898;1302;26194;-85
2023/11/15 00:30:26;;;;;;;6.80;2.60;;;;;;;8.67;84.95;97466.86;221757;1301;24270;-84
2023/11/15 00:35:28;;;;;;;4.90;2.50;;;;;;;8.62;85.43;97463.29;221660;1303;22607;-85
2023/11/15 00:40:32;;;;;;;4.50;2.60;;;;;;;8.59;85.62;97465.19;221452;1303;22748;-84
2023/11/15 00:45:35;;;;;;;5.80;3.00;;;;;;;8.56;85.67;97462.97;221623;1303;22633;-84
2023/11/15 00:50:38;;;;;;;5.60;3.10;;;;;;;8.52;86.08;97462.98;221645;1297;25005;-84
2023/11/15 00:55:40;;;;;;;8.30;3.80;;;;;;;8.47;86.23;97468.85;221931;1298;22592;-85
2023/11/15 01:00:47;;;;;;;5.20;3.30;;;;;;;8.42;86.15;97481.27;221429;1303;22831;-83
2023/11/15 01:05:50;;;;;;;4.90;2.70;;;;;;;8.40;86.59;97482.33;221860;1298;22591;-82
2023/11/15 01:10:54;;;;;;;6.20;3.40;;;;;;;8.40;86.80;97482.89;221800;1297;22646;-82
2023/11/15 01:15:58;;;;;;;6.50;3.20;;;;;;;8.37;86.90;97482.33;221695;1301;25400;-83
2023/11/15 01:21:01;;;;;;;5.60;3.30;;;;;;;8.35;87.09;97480.83;221681;1301;22675;-83
2023/11/15 01:26:05;;;;;;;4.00;3.10;;;;;;;8.34;87.19;97475.92;221944;1303;25310;-84
2023/11/15 01:31:08;;;;;;;5.70;3.80;;;;;;;8.34;87.25;97477.83;221428;1303;24275;-83
2023/11/15 01:36:11;;;;;;;5.00;3.20;;;;;;;8.32;87.28;97475.60;221878;1302;22597;-84
2023/11/15 01:41:16;;;;;;;6.20;4.10;;;;;;;8.33;87.40;97471.48;222208;1303;22588;-85
2023/11/15 01:46:20;;;;;;;7.90;4.20;;;;;;;8.34;87.55;97473.63;221716;1301;314285;-83
2023/11/15 01:51:23;;;;;;;4.10;3.50;;;;;;;8.34;87.63;97468.15;221676;1301;22600;-84
2023/11/15 01:56:25;;;;;;;7.70;4.20;;;;;;;8.33;87.59;97471.52;221592;1303;22595;-85
2023/11/15 02:01:31;;;;;;;9.70;4.50;;;;;;;8.29;87.96;97470.09;221794;1303;22607;-85
2023/11/15 02:06:38;;;;;;;5.20;4.00;;;;;;;8.27;87.98;97468.48;221648;1303;22951;-85
2023/11/15 02:11:40;;;;;;;5.40;3.80;;;;;;;8.27;88.34;97466.05;221785;1285;24381;-85
2023/11/15 02:16:44;;;;;;;4.00;3.20;;;;;;;8.26;88.06;97464.63;221759;1301;24925;-84
2023/11/15 02:21:47;;;;;;;5.10;3.70;;;;;;;8.24;88.17;97462.13;221692;1303;24268;-84
2023/11/15 02:26:49;;;;;;;5.20;3.50;;;;;;;8.22;88.53;97465.48;221593;1302;22619;-83
2023/11/15 02:31:51;;;;;;;5.20;3.40;;;;;;;8.19;88.71;97460.27;221747;1303;22583;-85
2023/11/15 02:36:53;;;;;;;3.90;3.30;;;;;;;8.16;89.20;97457.48;221364;1303;22616;-85
2023/11/15 02:41:55;;;;;;;5.00;3.70;;;;;;;8.15;89.06;97463.41;221742;1298;22576;-85
2023/11/15 02:46:57;;;;;;;7.10;3.70;;;;;;;8.13;89.37;97457.38;221617;1303;22604;-85
2023/11/15 02:52:01;;;;;;;5.00;3.60;;;;;;;8.10;89.42;97461.41;221779;1301;22644;-85
2023/11/15 02:57:03;;;;;;;6.00;3.30;;;;;;;8.09;89.72;97464.86;221528;1301;22556;-84
2023/11/15 03:02:08;;;;;;;4.50;3.80;;;;;;;8.08;89.64;97468.21;221568;1303;23033;-83
2023/11/15 03:07:10;;;;;;;4.00;3.30;;;;;;;8.07;89.63;97463.69;221339;1303;22866;-84
2023/11/15 03:12:13;;;;;;;4.60;3.30;;;;;;;8.06;89.57;97466.31;221740;1301;22623;-83
2023/11/15 03:17:17;;;;;;;3.90;2.90;;;;;;;8.07;90.06;97472.14;221689;1303;25943;-84
2023/11/15 03:22:21;;;;;;;4.60;3.10;;;;;;;8.07;90.15;97470.61;221591;1303;23459;-84
2023/11/15 03:27:23;;;;;;;4.90;3.20;;;;;;;8.07;90.25;97472.86;221892;1298;24322;-86
2023/11/15 03:32:25;;;;;;;5.20;3.30;;;;;;;8.05;90.28;97464.48;221585;1301;22589;-84
2023/11/15 03:37:30;;;;;;;2.90;2.50;;;;;;;8.05;90.02;97470.32;221597;1303;22757;-84
2023/11/15 03:42:33;;;;;;;3.00;2.40;;;;;;;8.02;90.19;97471.90;221900;1301;22591;-87
2023/11/15 03:47:37;;;;;;;3.80;2.40;;;;;;;8.00;89.95;97470.70;221800;1301;22610;-84
2023/11/15 03:52:41;;;;;;;2.50;1.90;;;;;;;7.96;90.15;97478.35;221608;1298;22857;-84
2023/11/15 03:57:46;;;;;;;2.70;2.00;;;;;;;7.95;90.28;97480.77;221839;1301;22609;-86
2023/11/15 04:02:49;;;;;;;3.50;2.00;;;;;;;7.95;90.12;97478.30;221684;1298;22564;-84
2023/11/15 04:07:52;;;;;;;3.00;2.70;;;;;;;7.93;90.09;97485.98;221609;1303;22583;-84
2023/11/15 04:12:55;;;;;;;4.00;2.80;;;;;;;7.91;90.28;97482.42;221831;1303;22606;-84
2023/11/15 04:17:59;;;;;;;4.20;3.00;;;;;;;7.91;90.20;97479.59;221449;1303;22587;-84
2023/11/15 04:23:02;;;;;;;3.80;3.10;;;;;;;7.91;90.16;97477.33;221538;1303;22571;-84
2023/11/15 04:28:06;;;;;;;3.70;3.30;;;;;;;7.90;90.09;97473.97;221873;1298;22601;-84
2023/11/15 04:33:09;;;;;;;4.00;3.40;;;;;;;7.88;90.20;97473.32;221736;1303;24433;-84
2023/11/15 04:38:14;;;;;;;3.10;2.50;;;;;;;7.88;90.32;97468.46;221436;1303;22579;-85
2023/11/15 04:43:17;;;;;;;4.60;3.20;;;;;;;7.87;90.27;97458.99;221793;1291;23054;-85
2023/11/15 04:48:19;;;;;;;5.30;3.10;;;;;;;7.87;90.28;97462.96;221677;1300;24478;-85
2023/11/15 04:53:21;;;;;;;5.30;3.70;;;;;;;7.86;90.58;97463.75;221818;1301;22605;-85
2023/11/15 04:58:25;;;;;;;3.70;3.20;;;;;;;7.83;90.34;97466.95;221626;1301;22587;-85
2023/11/15 05:03:28;;;;;;;5.00;3.20;;;;;;;7.82;90.59;97472.05;221572;1301;22614;-84
2023/11/15 05:08:31;;;;;;;3.30;3.00;;;;;;;7.82;90.64;97474.52;221729;1303;22628;-85
2023/11/15 05:13:33;;;;;;;3.40;2.70;;;;;;;7.81;90.66;97477.23;221519;1303;22555;-84
2023/11/15 05:18:35;;;;;;;3.60;3.00;;;;;;;7.81;90.77;97483.73;221654;1301;22575;-84
2023/11/15 05:23:38;;;;;;;3.80;2.50;;;;;;;7.82;90.62;97485.00;221473;1303;22612;-85
2023/11/15 05:28:42;;;;;;;3.20;2.80;;;;;;;7.83;90.55;97490.98;221715;1303;22582;-84
2023/11/15 05:33:46;;;;;;;3.30;3.00;;;;;;;7.81;90.58;97492.42;221522;1300;22568;-84
2023/11/15 05:38:49;;;;;;;3.70;3.30;;;;;;;7.79;90.68;97496.02;221531;1300;22592;-84
2023/11/15 05:43:52;;;;;;;4.40;3.40;;;;;;;7.78;90.62;97491.25;221617;1300;22580;-83
2023/11/15 05:48:54;;;;;;;3.50;3.20;;;;;;;7.76;90.81;97494.16;221875;1298;24385;-82
2023/11/15 05:53:56;;;;;;;5.20;4.10;;;;;;;7.75;90.87;97498.33;221789;1301;22575;-82
2023/11/15 05:59:02;;;;;;;7.00;4.40;;;;;;;7.75;90.77;97509.84;221796;1303;22563;-82
2023/11/15 06:04:05;;;;;;;4.50;4.10;;;;;;;7.76;91.04;97520.77;221704;1303;22702;-83
2023/11/15 06:09:13;;;;;;;5.70;5.10;;;;;;;7.76;90.86;97525.98;221764;1301;22641;-81
2023/11/15 06:14:17;;;;;;;4.40;4.00;;;;;;;7.76;91.10;97534.60;221703;1301;22617;-83
2023/11/15 06:19:21;;;;;;;6.80;5.30;;;;;;;7.80;91.27;97546.46;221961;1303;22581;-82
2023/11/15 06:24:24;;;;;;;5.70;4.70;;;;;;;7.85;91.06;97554.40;221755;1301;22817;-83
2023/11/15 06:29:27;;;;;;;4.30;3.70;;;;;;;7.87;91.15;97562.80;221673;1301;25207;-82
2023/11/15 06:34:30;;;;;;;5.60;3.40;;;;;;;7.91;91.02;97572.23;221762;1303;22618;-84
2023/11/15 06:39:33;;;;;;;4.20;3.30;;;;;;;7.98;91.24;97585.02;221334;1303;22615;-83
2023/11/15 06:44:35;;;;;;;6.90;5.60;;;;;;;8.03;91.02;97592.32;221534;1301;25543;-82
2023/11/15 06:49:38;;;;;;;4.00;3.30;;;;;;;8.06;90.74;97595.20;221329;1303;22599;-82
2023/11/15 06:54:40;;;;;;;3.70;2.80;;;;;;;8.10;91.20;97598.86;221525;1282;22757;-84
2023/11/15 06:59:42;;;;;;;4.50;3.50;;;;;;;8.11;91.14;97604.16;221290;1284;22572;-79
2023/11/15 07:04:44;;;;;;;5.40;3.80;;;;;;;8.12;91.00;97613.15;220930;1286;22997;-79
2023/11/15 07:09:46;;;;;;;3.80;2.20;;;;;;;8.18;91.10;97622.93;220746;1289;22851;-78
2023/11/15 07:14:48;;;;;;;2.10;1.90;;;;;;;8.23;90.98;97631.28;221142;1283;25496;-77
2023/11/15 07:19:51;;;;;;;2.20;1.70;;;;;;;8.28;90.95;97637.45;221216;1291;22598;-78
2023/11/15 07:24:54;;;;;;;1.90;1.40;;;;;;;8.33;91.13;97643.09;221159;1293;22586;-79
2023/11/15 07:29:58;;;;;;;1.90;1.40;;;;;;;8.37;90.61;97653.02;221811;1293;22740;-78
2023/11/15 07:35:00;;;;;;;2.30;0.90;;;;;;;8.43;90.79;97660.73;221222;1296;22596;-77
2023/11/15 07:40:04;;;;;;;1.30;0.90;;;;;;;8.51;90.83;97667.69;221202;1289;22952;-78
2023/11/15 07:45:08;;;;;;;1.20;0.80;;;;;;;8.58;90.74;97678.39;221069;1296;22689;-77
2023/11/15 07:50:15;;;;;;;0.70;0.70;;;;;;;8.64;90.55;97682.10;221079;1298;22658;-78
2023/11/15 07:55:17;;;;;;;1.30;0.70;;;;;;;8.75;90.72;97691.55;221068;1280;22747;-78
2023/11/15 08:00:23;;;;;;;2.10;0.70;;;;;;;8.87;90.95;97699.05;221095;1297;22567;-77
2023/11/15 08:05:26;;;;;;;1.50;1.40;;;;;;;8.96;90.80;97703.16;221020;1282;24302;-77
2023/11/15 08:10:31;;;;;;;2.30;2.10;;;;;;;8.99;90.62;97705.40;220797;1288;22586;-79
2023/11/15 08:15:33;;;;;;;4.40;2.50;;;;;;;9.04;90.28;97709.45;221074;1298;22615;-79
2023/11/15 08:20:35;;;;;;;2.00;1.80;;;;;;;9.07;90.40;97719.44;220836;1288;22599;-79
2023/11/15 08:25:41;;;;;;;2.40;2.00;;;;;;;9.06;90.02;97725.36;221073;1289;23072;-78
2023/11/15 08:30:45;;;;;;;3.50;2.80;;;;;;;9.08;90.15;97733.95;221215;1285;22598;-78
2023/11/15 08:35:48;;;;;;;4.00;3.10;;;;;;;9.09;90.28;97741.73;221119;1285;25266;-78
2023/11/15 08:40:55;;;;;;;4.30;3.90;;;;;;;9.10;89.98;97752.59;220882;1280;22688;-78
2023/11/15 08:45:57;;;;;;;5.90;5.40;;;;;;;9.04;89.92;97762.50;221083;1280;25338;-80
2023/11/15 08:51:03;;;;;;;6.00;5.50;;;;;;;8.98;90.05;97772.71;220943;1281;22606;-81
2023/11/15 08:56:07;;;;;;;6.40;5.80;;;;;;;8.95;89.86;97782.11;220919;1280;23083;-77
2023/11/15 09:01:24;;;;;;;3.50;3.20;;;;;;;8.95;90.14;97792.45;221014;1279;22607;-78
2023/11/15 09:06:29;;;;;;;3.10;2.80;;;;;;;8.98;90.20;97798.82;220829;1285;22588;-78
2023/11/15 09:11:31;;;;;;;4.50;2.20;;;;;;;9.01;89.76;97806.70;221187;1286;22571;-77
2023/11/15 09:16:34;;;;;;;2.80;2.40;;;;;;;9.04;90.27;97811.79;221020;1285;22612;-77
2023/11/15 09:21:36;;;;;;;3.10;2.20;;;;;;;9.11;90.21;97814.42;220827;1289;22658;-80
2023/11/15 09:26:40;;;;;;;2.20;1.90;;;;;;;9.13;89.77;97818.92;221025;1290;22587;-78
2023/11/15 09:31:46;;;;;;;2.20;2.10;;;;;;;9.12;89.75;97824.31;221182;1289;22577;-81
2023/11/15 09:36:49;;;;;;;2.90;2.30;;;;;;;9.09;89.55;97831.23;221236;1285;23281;-80
2023/11/15 09:41:55;;;;;;;2.80;2.60;;;;;;;9.08;90.02;97828.16;220941;1283;23176;-80
2023/11/15 09:46:58;;;;;;;3.20;2.90;;;;;;;9.11;89.79;97835.30;221167;1289;22579;-76
2023/11/15 09:52:01;;;;;;;2.50;1.80;;;;;;;9.19;89.99;97843.70;221227;1295;22611;-80
2023/11/15 09:57:04;;;;;;;2.00;1.80;;;;;;;9.29;89.68;97847.40;221015;1298;22608;-77
2023/11/15 10:02:06;;;;;;;3.10;2.30;;;;;;;9.34;89.79;97850.15;220950;1294;22621;-81
2023/11/15 10:07:23;;;;;;;2.40;2.20;;;;;;;9.40;89.40;97856.44;220851;1280;22572;-79
2023/11/15 10:12:31;;;;;;;;;;;;;;;9.48;89.19;97857.98;221082;1292;22610;-81
2023/11/15 10:17:42;;;;;;;2.70;2.20;;;;;;;9.48;88.93;97867.64;221289;1279;22613;-80
2023/11/15 10:22:46;;;;;;;1.40;1.30;;;;;;;9.44;88.92;97875.63;221109;1279;22511;-78
2023/11/15 10:27:51;;;;;;;1.10;1.00;;;;;;;9.37;88.89;97885.14;221044;1285;22646;-78
2023/11/15 10:33:17;;;;;;;1.30;1.00;;;;;;;9.36;89.00;97902.29;221211;1298;22599;-78
2023/11/15 10:38:20;;;;;;;1.30;1.00;;;;;;;9.43;88.73;97912.16;221350;1285;23041;-79
2023/11/15 10:43:23;;;;;;;1.70;1.10;;;;;;;9.51;88.82;97912.62;221269;1282;22632;-79
2023/11/15 10:48:33;;;;;;;2.50;2.30;;;;;;;9.61;88.34;97922.73;221521;1295;22577;-78
2023/11/15 10:53:37;;;;;;;;;;;;;;;9.66;88.18;97922.63;221170;1282;22582;-80
2023/11/15 10:58:45;;;;;;;6.20;2.50;;;;;;;9.69;88.31;97928.56;221609;1280;22570;-80
2023/11/15 11:03:51;;;;;;;3.80;3.50;;;;;;;9.69;88.28;97941.54;221145;1301;22966;-76
2023/11/15 11:09:12;;;;;;;4.10;3.10;;;;;;;9.66;88.05;97942.44;221289;1295;22580;-75
2023/11/15 11:14:25;;;;;;;6.90;2.50;;;;;;;9.65;87.94;97945.08;221063;1298;22605;-76
2023/11/15 11:19:27;;;;;;;2.10;1.80;;;;;;;9.64;87.67;97940.21;221109;1298;22632;-75
2023/11/15 11:24:45;;;;;;;2.30;2.00;;;;;;;9.68;87.85;97949.69;221349;1298;22799;-75
2023/11/15 11:29:49;;;;;;;1.60;1.40;;;;;;;9.71;87.60;97949.99;221266;1291;22585;-76
2023/11/15 11:35:25;;;;;;;4.40;1.70;;;;;;;9.74;87.27;97958.80;221292;1282;22585;-75
2023/11/15 11:40:38;;;;;;;1.40;1.30;;;;;;;9.79;87.43;97969.52;221097;1283;22623;-76
2023/11/15 11:45:54;;;;;;;2.00;1.20;;;;;;;9.84;87.18;97973.85;222074;1291;22578;-77
2023/11/15 11:51:03;;;;;;;4.60;1.40;;;;;;;9.88;86.70;97982.63;221210;1291;22636;-76
2023/11/15 11:56:10;;;;;;;5.20;1.70;;;;;;;9.92;86.56;97981.21;221015;1298;22604;-78
2023/11/15 12:01:14;;;;;;;2.80;1.50;;;;;;;9.97;86.65;97994.30;221017;1301;22612;-78
2023/11/15 12:06:17;;;;;;;2.70;1.60;;;;;;;9.95;86.40;98004.95;221440;1280;22631;-76
2023/11/15 12:11:29;;;;;;;2.20;1.80;;;;;;;9.96;86.32;98004.45;221640;1285;22641;-78
2023/11/15 12:16:31;;;;;;;2.20;1.70;;;;;;;9.95;85.91;98015.05;221229;1295;22882;-78
2023/11/15 12:21:38;;;;;;;4.60;2.60;;;;;;;9.90;85.55;98018.02;221282;1302;22605;-78
2023/11/15 12:26:43;;;;;;;1.60;1.50;;;;;;;9.82;85.95;98024.17;221294;1288;22594;-78
2023/11/15 12:31:47;;;;;;;3.30;1.70;;;;;;;9.73;85.58;98028.92;221456;1295;24279;-77
2023/11/15 12:36:50;;;;;;;4.70;1.70;;;;;;;9.77;85.93;98030.95;221708;1295;22621;-78
2023/11/15 12:41:52;;;;;;;1.80;1.20;;;;;;;9.91;85.79;98028.29;221612;1289;22586;-77
2023/11/15 12:47:00;;;;;;;1.00;0.80;;;;;;;10.04;85.15;98029.31;221181;1298;24995;-79
2023/11/15 12:52:02;;;;;;;1.30;0.90;;;;;;;10.15;84.49;98025.53;221189;1282;22652;-78
2023/11/15 12:57:12;;;;;;;1.50;1.20;;;;;;;10.21;84.01;98026.91;221041;1295;22936;-78
2023/11/15 13:02:26;;;;;;;2.10;0.90;;;;;;;10.19;82.87;98026.50;221286;1295;24871;-77
2023/11/15 13:07:29;;;;;;;1.00;0.80;;;;;;;10.18;81.89;98023.66;221165;1295;24334;-77
2023/11/15 13:12:31;;;;;;;1.10;1.00;;;;;;;10.19;81.33;98021.17;221176;1288;22623;-78
2023/11/15 13:17:33;;;;;;;1.90;0.80;;;;;;;10.15;80.40;98010.63;221244;1297;22604;-77
2023/11/15 13:22:35;;;;;;;2.40;0.90;;;;;;;10.07;80.32;98016.33;220879;1279;22648;-76
2023/11/15 13:27:37;;;;;;;2.40;0.90;;;;;;;9.99;80.33;98017.52;221164;1280;22724;-76
2023/11/15 13:32:40;;;;;;;1.20;0.80;;;;;;;9.89;79.57;98032.89;221231;1279;25332;-76
2023/11/15 13:37:55;;;;;;;2.80;1.10;;;;;;;9.78;79.23;98042.60;220934;1282;22583;-76
2023/11/15 13:43:11;;;;;;;1.90;0.80;;;;;;;9.69;78.88;98062.34;220805;1283;22598;-76
2023/11/15 13:48:24;;;;;;;2.30;1.00;;;;;;;9.66;78.52;98060.79;220508;1280;177969;-76
2023/11/15 13:53:26;;;;;;;2.60;0.90;;;;;;;9.60;78.35;98074.27;220707;1282;22584;-76
2023/11/15 13:58:28;;;;;;;1.00;0.70;;;;;;;9.52;78.42;98077.23;220839;1280;22587;-77
2023/11/15 14:03:30;;;;;;;7.50;0.90;;;;;;;9.40;77.88;98095.77;220813;1280;22605;-76
2023/11/15 14:08:40;;;;;;;2.40;0.90;;;;;;;9.28;77.76;98093.79;221254;1291;22575;-75
2023/11/15 14:13:45;;;;;;;0.90;0.60;;;;;;;9.18;77.39;98110.80;221245;1296;22603;-78
2023/11/15 14:18:49;;;;;;;1.60;1.10;;;;;;;9.11;76.58;98104.84;221040;1294;22713;-75
2023/11/15 14:23:52;;;;;;;1.80;1.10;;;;;;;9.04;76.87;98115.24;222822;1289;22557;-74
2023/11/15 14:28:54;;;;;;;2.10;0.90;;;;;;;8.98;76.79;98133.96;221169;1285;25475;-75
2023/11/15 14:33:56;;;;;;;2.10;1.10;;;;;;;8.93;76.89;98140.70;221283;1280;23015;-76
2023/11/15 14:38:58;;;;;;;2.70;1.20;;;;;;;8.88;76.95;98149.73;221314;1280;22585;-76
2023/11/15 14:44:03;;;;;;;1.60;1.00;;;;;;;8.84;77.09;98159.04;221224;1282;24273;-75
2023/11/15 14:49:05;;;;;;;2.50;1.10;;;;;;;8.80;77.27;98161.89;221235;1280;22575;-75
2023/11/15 14:54:09;;;;;;;2.30;1.10;;;;;;;8.76;77.32;98170.33;221210;1288;22578;-76
2023/11/15 14:59:11;;;;;;;2.00;1.20;;;;;;;8.72;77.52;98168.58;220971;1284;22714;-78
2023/11/15 15:04:14;;;;;;;3.00;1.60;;;;;;;8.68;77.40;98171.53;221034;1288;24269;-78
2023/11/15 15:09:17;;;;;;;3.80;1.80;;;;;;;8.62;77.57;98177.98;221102;1300;22590;-77
2023/11/15 15:14:20;;;;;;;3.50;1.20;;;;;;;8.58;77.03;98193.36;221029;1302;22601;-78
2023/11/15 15:19:23;;;;;;;1.40;1.20;;;;;;;8.55;76.65;98195.03;221348;1302;24320;-78
2023/11/15 15:24:25;;;;;;;2.30;1.40;;;;;;;8.50;76.70;98205.68;221328;1291;24727;-77
2023/11/15 15:29:27;;;;;;;1.70;1.30;;;;;;;8.45;77.14;98220.23;221498;1290;22585;-77
2023/11/15 15:34:30;;;;;;;1.80;1.30;;;;;;;8.39;77.35;98231.99;221646;1302;22600;-77
2023/11/15 15:39:33;;;;;;;2.20;1.20;;;;;;;8.35;77.45;98237.02;221767;1295;22571;-78
2023/11/15 15:44:35;;;;;;;2.70;1.30;;;;;;;8.34;77.42;98249.90;221662;1302;22575;-78
2023/11/15 15:49:41;;;;;;;2.90;1.60;;;;;;;8.31;77.48;98257.97;221782;1298;22604;-78
2023/11/15 15:54:44;;;;;;;3.70;2.00;;;;;;;8.28;77.17;98267.00;221800;1298;22932;-77
2023/11/15 15:59:46;;;;;;;2.20;1.40;;;;;;;8.25;77.75;98282.11;221789;1295;22663;-78
2023/11/15 16:04:48;;;;;;;2.90;1.80;;;;;;;8.23;77.55;98286.80;221769;1301;22598;-78
2023/11/15 16:09:50;;;;;;;3.20;1.60;;;;;;;8.20;77.59;98298.74;221795;1302;22587;-78
2023/11/15 16:14:52;;;;;;;2.80;1.90;;;;;;;8.17;77.59;98304.87;221702;1301;22620;-78
2023/11/15 16:19:54;;;;;;;4.00;2.00;;;;;;;8.13;77.47;98309.33;221792;1301;22796;-78
2023/11/15 16:24:59;;;;;;;3.90;2.20;;;;;;;8.10;77.70;98322.16;221838;1298;23113;-78
2023/11/15 16:30:03;;;;;;;3.40;2.10;;;;;;;8.08;77.95;98333.66;221878;1298;22663;-79
2023/11/15 16:35:08;;;;;;;4.20;1.70;;;;;;;8.07;78.09;98347.48;221855;1302;22599;-79
2023/11/15 16:40:11;;;;;;;2.70;1.80;;;;;;;8.08;77.91;98359.48;221832;1298;22576;-77
2023/11/15 16:45:13;;;;;;;5.90;2.00;;;;;;;8.09;78.31;98371.27;221851;1302;22572;-78
2023/11/15 16:50:15;;;;;;;4.50;2.20;;;;;;;8.09;78.39;98378.97;221850;1295;24982;-78
2023/11/15 16:55:18;;;;;;;4.30;2.80;;;;;;;8.08;78.39;98387.10;221798;1301;22608;-77
2023/11/15 17:00:20;;;;;;;1.80;1.40;;;;;;;8.07;78.30;98395.20;221759;1301;22576;-78
2023/11/15 17:05:22;;;;;;;1.70;1.40;;;;;;;8.06;78.33;98405.52;221813;1301;22597;-78
2023/11/15 17:10:26;;;;;;;3.10;1.80;;;;;;;8.04;78.00;98417.11;221799;1301;22605;-78
2023/11/15 17:15:29;;;;;;;2.70;1.90;;;;;;;8.03;77.97;98429.52;221844;1298;22586;-79
2023/11/15 17:20:31;;;;;;;2.70;1.70;;;;;;;8.01;77.96;98432.86;221798;1303;22587;-78
2023/11/15 17:25:35;;;;;;;3.00;2.30;;;;;;;7.99;78.10;98435.42;221851;1298;22595;-80
2023/11/15 17:30:37;;;;;;;3.40;2.10;;;;;;;7.97;78.23;98444.61;221861;1298;22566;-78
2023/11/15 17:35:41;;;;;;;2.20;1.90;;;;;;;7.96;78.22;98451.20;221834;1302;22746;-79
2023/11/15 17:40:43;;;;;;;2.60;1.80;;;;;;;7.95;78.05;98455.38;221799;1303;22571;-79
2023/11/15 17:45:46;;;;;;;2.50;1.90;;;;;;;7.94;78.21;98458.11;221818;1298;22717;-79
2023/11/15 17:50:48;;;;;;;3.20;2.20;;;;;;;7.93;78.12;98459.04;221870;1298;22738;-79
2023/11/15 17:55:50;;;;;;;2.60;1.80;;;;;;;7.92;78.15;98467.63;221804;1298;22953;-78
2023/11/15 18:00:54;;;;;;;5.00;2.10;;;;;;;7.91;78.13;98469.65;221822;1301;22579;-78
2023/11/15 18:05:56;;;;;;;3.30;2.30;;;;;;;7.92;77.93;98474.55;221748;1301;22640;-79
2023/11/15 18:10:58;;;;;;;3.50;2.20;;;;;;;7.90;78.25;98476.06;221659;1301;22645;-79
2023/11/15 18:16:01;;;;;;;4.20;2.80;;;;;;;7.89;78.13;98486.23;221810;1298;22575;-79
2023/11/15 18:21:03;;;;;;;4.20;2.80;;;;;;;7.88;78.36;98493.30;221599;1302;25029;-79
2023/11/15 18:26:05;;;;;;;3.70;2.50;;;;;;;7.85;78.19;98501.77;221830;1301;22575;-79
2023/11/15 18:31:11;;;;;;;4.70;2.30;;;;;;;7.82;78.45;98514.41;221712;1301;22580;-80
2023/11/15 18:36:13;;;;;;;3.20;2.20;;;;;;;7.82;78.38;98522.70;221822;1292;22574;-78
2023/11/15 18:41:16;;;;;;;5.60;2.60;;;;;;;7.80;78.52;98530.92;221865;1300;22570;-78
2023/11/15 18:46:18;;;;;;;4.30;3.00;;;;;;;7.76;78.67;98536.05;221704;1301;22643;-78
2023/11/15 18:51:21;;;;;;;4.50;3.10;;;;;;;7.72;78.31;98530.92;221849;1288;22573;-79
2023/11/15 18:56:26;;;;;;;7.80;5.60;;;;;;;7.67;78.62;98530.64;221917;1301;23061;-79
2023/11/15 19:01:29;;;;;;;4.80;2.90;;;;;;;7.65;78.72;98541.06;221853;1298;22573;-77
2023/11/15 19:06:32;;;;;;;5.20;3.30;;;;;;;7.63;78.86;98544.07;221574;1302;22956;-78
2023/11/15 19:11:35;;;;;;;4.30;3.20;;;;;;;7.61;78.74;98547.85;221699;1301;25515;-79
2023/11/15 19:16:39;;;;;;;4.80;3.10;;;;;;;7.59;78.92;98556.27;221823;1301;22701;-78
2023/11/15 19:21:42;;;;;;;7.10;3.60;;;;;;;7.56;78.78;98560.86;221673;1302;22615;-78
2023/11/15 19:26:46;;;;;;;5.70;3.00;;;;;;;7.54;78.95;98564.33;221752;1302;22612;-79
2023/11/15 19:31:50;;;;;;;5.30;3.20;;;;;;;7.50;78.63;98566.14;221751;1302;25496;-79
2023/11/15 19:36:53;;;;;;;6.20;3.20;;;;;;;7.48;79.08;98573.38;221858;1302;23088;-79
2023/11/15 19:41:55;;;;;;;5.50;2.80;;;;;;;7.47;78.95;98582.55;221850;1301;23090;-78
2023/11/15 19:47:00;;;;;;;5.10;3.10;;;;;;;7.45;79.06;98587.88;221897;1301;22579;-79
2023/11/15 19:52:09;;;;;;;5.60;2.80;;;;;;;7.40;79.15;98590.22;221718;1294;22594;-79
2023/11/15 19:57:13;;;;;;;4.30;3.00;;;;;;;7.38;79.18;98584.84;221687;1302;23355;-78
2023/11/15 20:02:17;;;;;;;4.30;3.20;;;;;;;7.37;79.01;98582.80;221905;1300;22615;-79
2023/11/15 20:07:19;;;;;;;4.20;3.10;;;;;;;7.34;78.97;98585.90;221849;1295;22558;-77
2023/11/15 20:12:23;;;;;;;5.90;3.20;;;;;;;7.32;79.15;98591.95;221964;1301;22979;-79
2023/11/15 20:17:26;;;;;;;5.20;3.00;;;;;;;7.28;78.78;98602.59;221821;1302;22588;-78
2023/11/15 20:22:30;;;;;;;5.70;2.90;;;;;;;7.26;79.01;98608.98;221760;1301;22571;-78
2023/11/15 20:27:47;;;;;;;5.00;2.80;;;;;;;7.23;79.01;98611.71;221882;1298;22688;-79
2023/11/15 20:32:49;;;;;;;4.50;2.70;;;;;;;7.22;79.18;98613.66;221858;1299;22622;-79
2023/11/15 20:37:58;;;;;;;5.00;3.10;;;;;;;7.19;79.31;98610.22;221732;1295;22617;-79
2023/11/15 20:43:02;;;;;;;5.80;3.20;;;;;;;7.17;79.13;98618.56;221828;1298;22587;-79
2023/11/15 20:48:04;;;;;;;5.50;3.80;;;;;;;7.14;79.05;98621.15;221888;1301;22506;-79
2023/11/15 20:53:09;;;;;;;4.20;3.20;;;;;;;7.11;78.88;98621.98;221827;1301;22570;-77
2023/11/15 20:58:13;;;;;;;3.60;2.80;;;;;;;7.10;78.97;98625.46;221733;1301;22575;-78
2023/11/15 21:03:15;;;;;;;5.70;3.20;;;;;;;7.08;79.04;98622.28;221707;1301;23109;-80
2023/11/15 21:08:18;;;;;;;5.50;3.50;;;;;;;7.06;78.99;98620.78;221819;1302;22583;-79
2023/11/15 21:13:21;;;;;;;6.90;3.20;;;;;;;7.04;79.17;98614.41;221763;1298;22680;-79
2023/11/15 21:18:25;;;;;;;5.20;3.40;;;;;;;7.01;79.17;98617.95;221849;1301;22600;-78
2023/11/15 21:23:28;;;;;;;5.20;3.40;;;;;;;6.99;79.25;98620.91;221892;1291;22628;-78
2023/11/15 21:28:30;;;;;;;5.50;2.90;;;;;;;6.97;79.16;98625.11;221815;1302;22660;-78
2023/11/15 21:33:33;;;;;;;5.90;4.20;;;;;;;6.97;79.23;98627.05;221951;1302;22721;-80
2023/11/15 21:38:35;;;;;;;4.80;2.70;;;;;;;6.97;79.30;98626.00;221879;1302;22509;-78
2023/11/15 21:43:39;;;;;;;5.60;2.80;;;;;;;6.96;79.36;98626.63;222048;1282;22608;-78
2023/11/15 21:48:41;;;;;;;3.80;2.40;;;;;;;6.94;79.47;98626.50;221905;1303;22576;-79
2023/11/15 21:53:44;;;;;;;3.70;2.50;;;;;;;6.91;79.63;98629.82;221901;1301;22583;-78
2023/11/15 21:58:46;;;;;;;4.40;2.80;;;;;;;6.85;79.30;98633.63;221693;1301;22581;-78
2023/11/15 22:03:48;;;;;;;4.30;2.60;;;;;;;6.82;79.51;98642.73;221719;1301;22591;-77
2023/11/15 22:08:53;;;;;;;5.40;2.70;;;;;;;6.83;79.49;98649.48;221870;1301;22564;-78
2023/11/15 22:13:56;;;;;;;4.90;2.90;;;;;;;6.83;79.95;98653.79;221854;1301;25312;-78
2023/11/15 22:18:58;;;;;;;7.00;2.90;;;;;;;6.85;79.73;98656.20;221845;1302;22564;-78
2023/11/15 22:24:02;;;;;;;5.40;2.90;;;;;;;6.85;79.69;98661.79;221751;1302;22611;-79
2023/11/15 22:29:04;;;;;;;5.90;3.10;;;;;;;6.84;79.67;98660.55;221862;1301;25498;-77
2023/11/15 22:34:08;;;;;;;6.00;2.90;;;;;;;6.82;79.79;98664.58;221755;1295;22608;-77
2023/11/15 22:39:10;;;;;;;4.30;2.50;;;;;;;6.81;79.58;98666.36;221729;1302;22606;-76
2023/11/15 22:44:12;;;;;;;5.00;3.40;;;;;;;6.76;79.67;98675.60;221886;1298;22984;-76
2023/11/15 22:49:15;;;;;;;5.00;3.20;;;;;;;6.73;79.60;98679.02;221824;1300;26064;-75
2023/11/15 22:54:17;;;;;;;3.60;2.40;;;;;;;6.72;79.85;98681.60;221612;1302;25327;-77
2023/11/15 22:59:20;;;;;;;4.30;3.00;;;;;;;6.69;79.88;98683.55;221861;1298;22621;-76
2023/11/15 23:04:22;;;;;;;5.70;2.90;;;;;;;6.65;79.67;98687.92;221704;1302;22571;-75
2023/11/15 23:09:24;;;;;;;3.50;2.60;;;;;;;6.63;79.84;98694.35;221791;1301;22646;-73
2023/11/15 23:14:27;;;;;;;4.80;3.20;;;;;;;6.60;79.91;98694.80;221691;1302;25391;-75
2023/11/15 23:19:29;;;;;;;6.00;2.70;;;;;;;6.58;79.89;98699.59;221919;1298;23083;-75
2023/11/15 23:24:32;;;;;;;3.70;2.80;;;;;;;6.54;79.85;98705.39;221677;1301;22589;-75
2023/11/15 23:29:34;;;;;;;4.10;2.80;;;;;;;6.47;79.78;98706.77;221754;1302;25336;-75
2023/11/15 23:34:48;;;;;;;3.20;2.60;;;;;;;6.41;80.22;98710.73;221847;1301;24277;-75
2023/11/15 23:39:51;;;;;;;4.80;2.70;;;;;;;6.37;80.10;98709.77;221784;1301;22580;-74
2023/11/15 23:44:56;;;;;;;4.90;2.90;;;;;;;6.29;80.18;98710.41;221790;1302;22738;-75
2023/11/15 23:49:59;;;;;;;7.20;3.10;;;;;;;6.18;80.04;98716.60;221851;1302;22590;-75